sensor_id;sensor_type;location;lat;lon;timestamp;P1;durP1;ratioP1;P2;durP2;ratioP2
53409;SDS011;66590;50.734;4.246;2023-07-29T00:01:34;2.25;;;1.77;;
53409;SDS011;66590;50.734;4.246;2023-07-29T00:04:01;2.50;;;1.80;;
53409;SDS011;66590;50.734;4.246;2023-07-29T00:06:29;2.05;;;1.60;;
53409;SDS011;66590;50.734;4.246;2023-07-29T00:08:56;2.03;;;1.60;;
53409;SDS011;66590;50.734;4.246;2023-07-29T00:11:23;3.10;;;1.83;;
53409;SDS011;66590;50.734;4.246;2023-07-29T00:13:50;3.58;;;1.98;;
53409;SDS011;66590;50.734;4.246;2023-07-29T00:16:18;2.35;;;1.80;;
53409;SDS011;66590;50.734;4.246;2023-07-29T00:18:45;2.08;;;1.70;;
53409;SDS011;66590;50.734;4.246;2023-07-29T00:21:12;2.13;;;1.80;;
53409;SDS011;66590;50.734;4.246;2023-07-29T00:23:39;1.85;;;1.75;;
53409;SDS011;66590;50.734;4.246;2023-07-29T00:26:06;2.75;;;1.70;;
53409;SDS011;66590;50.734;4.246;2023-07-29T00:28:33;2.00;;;1.80;;
53409;SDS011;66590;50.734;4.246;2023-07-29T00:31:01;2.22;;;1.90;;
53409;SDS011;66590;50.734;4.246;2023-07-29T00:33:29;4.50;;;1.70;;
53409;SDS011;66590;50.734;4.246;2023-07-29T00:35:56;4.35;;;2.10;;
53409;SDS011;66590;50.734;4.246;2023-07-29T00:38:23;3.33;;;2.08;;
53409;SDS011;66590;50.734;4.246;2023-07-29T00:40:50;2.67;;;1.80;;
53409;SDS011;66590;50.734;4.246;2023-07-29T00:43:17;2.97;;;2.10;;
53409;SDS011;66590;50.734;4.246;2023-07-29T00:45:44;2.55;;;2.00;;
53409;SDS011;66590;50.734;4.246;2023-07-29T00:48:12;2.75;;;2.15;;
53409;SDS011;66590;50.734;4.246;2023-07-29T00:50:41;2.70;;;1.80;;
53409;SDS011;66590;50.734;4.246;2023-07-29T00:53:08;2.35;;;2.10;;
53409;SDS011;66590;50.734;4.246;2023-07-29T00:55:35;3.00;;;2.00;;
53409;SDS011;66590;50.734;4.246;2023-07-29T00:58:02;2.67;;;1.83;;
53409;SDS011;66590;50.734;4.246;2023-07-29T01:00:29;5.82;;;2.30;;
53409;SDS011;66590;50.734;4.246;2023-07-29T01:02:56;3.17;;;1.88;;
53409;SDS011;66590;50.734;4.246;2023-07-29T01:05:24;5.03;;;2.17;;
53409;SDS011;66590;50.734;4.246;2023-07-29T01:07:58;4.00;;;2.47;;
53409;SDS011;66590;50.734;4.246;2023-07-29T01:10:45;2.92;;;2.20;;
53409;SDS011;66590;50.734;4.246;2023-07-29T01:13:22;4.47;;;2.47;;
53409;SDS011;66590;50.734;4.246;2023-07-29T01:15:54;4.18;;;2.38;;
53409;SDS011;66590;50.734;4.246;2023-07-29T01:18:23;3.13;;;2.00;;
53409;SDS011;66590;50.734;4.246;2023-07-29T01:20:53;4.40;;;2.20;;
53409;SDS011;66590;50.734;4.246;2023-07-29T01:23:24;3.13;;;2.10;;
53409;SDS011;66590;50.734;4.246;2023-07-29T01:25:52;2.72;;;2.15;;
53409;SDS011;66590;50.734;4.246;2023-07-29T01:28:19;2.38;;;2.13;;
53409;SDS011;66590;50.734;4.246;2023-07-29T01:30:46;5.18;;;2.28;;
53409;SDS011;66590;50.734;4.246;2023-07-29T01:33:18;3.60;;;2.42;;
53409;SDS011;66590;50.734;4.246;2023-07-29T01:35:50;4.03;;;2.53;;
53409;SDS011;66590;50.734;4.246;2023-07-29T01:38:24;2.58;;;2.13;;
53409;SDS011;66590;50.734;4.246;2023-07-29T01:40:56;2.95;;;2.30;;
53409;SDS011;66590;50.734;4.246;2023-07-29T01:43:24;5.05;;;2.80;;
53409;SDS011;66590;50.734;4.246;2023-07-29T01:45:51;3.08;;;2.08;;
53409;SDS011;66590;50.734;4.246;2023-07-29T01:48:18;4.50;;;2.10;;
53409;SDS011;66590;50.734;4.246;2023-07-29T01:50:45;3.20;;;2.40;;
53409;SDS011;66590;50.734;4.246;2023-07-29T01:53:12;4.22;;;2.38;;
53409;SDS011;66590;50.734;4.246;2023-07-29T01:55:41;3.08;;;2.47;;
53409;SDS011;66590;50.734;4.246;2023-07-29T01:58:08;4.28;;;3.05;;
53409;SDS011;66590;50.734;4.246;2023-07-29T02:00:35;3.10;;;2.15;;
53409;SDS011;66590;50.734;4.246;2023-07-29T02:03:02;3.55;;;2.35;;
53409;SDS011;66590;50.734;4.246;2023-07-29T02:05:29;4.55;;;2.20;;
53409;SDS011;66590;50.734;4.246;2023-07-29T02:07:56;4.07;;;2.42;;
53409;SDS011;66590;50.734;4.246;2023-07-29T02:10:23;3.88;;;2.78;;
53409;SDS011;66590;50.734;4.246;2023-07-29T02:12:51;5.47;;;2.47;;
53409;SDS011;66590;50.734;4.246;2023-07-29T02:15:18;5.03;;;2.67;;
53409;SDS011;66590;50.734;4.246;2023-07-29T02:17:45;5.97;;;2.90;;
53409;SDS011;66590;50.734;4.246;2023-07-29T02:20:13;4.15;;;2.60;;
53409;SDS011;66590;50.734;4.246;2023-07-29T02:22:40;3.53;;;2.72;;
53409;SDS011;66590;50.734;4.246;2023-07-29T02:25:07;2.95;;;2.60;;
53409;SDS011;66590;50.734;4.246;2023-07-29T02:27:34;3.10;;;2.80;;
53409;SDS011;66590;50.734;4.246;2023-07-29T02:30:03;6.88;;;3.08;;
53409;SDS011;66590;50.734;4.246;2023-07-29T02:32:30;5.35;;;2.85;;
53409;SDS011;66590;50.734;4.246;2023-07-29T02:34:58;3.42;;;2.45;;
53409;SDS011;66590;50.734;4.246;2023-07-29T02:37:24;3.85;;;2.47;;
53409;SDS011;66590;50.734;4.246;2023-07-29T02:39:51;3.90;;;2.50;;
53409;SDS011;66590;50.734;4.246;2023-07-29T02:42:19;2.97;;;2.40;;
53409;SDS011;66590;50.734;4.246;2023-07-29T02:44:46;3.65;;;2.97;;
53409;SDS011;66590;50.734;4.246;2023-07-29T02:47:14;3.65;;;2.80;;
53409;SDS011;66590;50.734;4.246;2023-07-29T02:49:41;5.75;;;2.92;;
53409;SDS011;66590;50.734;4.246;2023-07-29T02:52:08;4.60;;;3.03;;
53409;SDS011;66590;50.734;4.246;2023-07-29T02:54:35;4.65;;;2.55;;
53409;SDS011;66590;50.734;4.246;2023-07-29T02:57:02;3.03;;;2.72;;
53409;SDS011;66590;50.734;4.246;2023-07-29T02:59:30;4.50;;;2.83;;
53409;SDS011;66590;50.734;4.246;2023-07-29T03:01:57;5.53;;;2.80;;
53409;SDS011;66590;50.734;4.246;2023-07-29T03:04:25;4.43;;;2.78;;
53409;SDS011;66590;50.734;4.246;2023-07-29T03:06:52;4.63;;;3.17;;
53409;SDS011;66590;50.734;4.246;2023-07-29T03:09:19;5.50;;;3.17;;
53409;SDS011;66590;50.734;4.246;2023-07-29T03:11:46;3.60;;;2.90;;
53409;SDS011;66590;50.734;4.246;2023-07-29T03:14:13;5.05;;;2.60;;
53409;SDS011;66590;50.734;4.246;2023-07-29T03:16:40;4.28;;;3.00;;
53409;SDS011;66590;50.734;4.246;2023-07-29T03:19:07;5.47;;;3.00;;
53409;SDS011;66590;50.734;4.246;2023-07-29T03:21:36;3.63;;;2.75;;
53409;SDS011;66590;50.734;4.246;2023-07-29T03:24:03;5.32;;;3.10;;
53409;SDS011;66590;50.734;4.246;2023-07-29T03:26:30;3.40;;;2.60;;
53409;SDS011;66590;50.734;4.246;2023-07-29T03:28:56;6.00;;;3.38;;
53409;SDS011;66590;50.734;4.246;2023-07-29T03:31:23;4.47;;;2.90;;
53409;SDS011;66590;50.734;4.246;2023-07-29T03:33:50;4.93;;;2.90;;
53409;SDS011;66590;50.734;4.246;2023-07-29T03:36:17;4.18;;;2.70;;
53409;SDS011;66590;50.734;4.246;2023-07-29T03:38:46;4.65;;;3.42;;
53409;SDS011;66590;50.734;4.246;2023-07-29T03:41:13;4.53;;;3.05;;
53409;SDS011;66590;50.734;4.246;2023-07-29T03:43:40;6.22;;;3.53;;
53409;SDS011;66590;50.734;4.246;2023-07-29T03:46:07;4.15;;;3.38;;
53409;SDS011;66590;50.734;4.246;2023-07-29T03:48:37;4.03;;;3.05;;
53409;SDS011;66590;50.734;4.246;2023-07-29T03:51:04;5.88;;;3.33;;
53409;SDS011;66590;50.734;4.246;2023-07-29T03:53:31;4.93;;;3.28;;
53409;SDS011;66590;50.734;4.246;2023-07-29T03:56:00;6.72;;;3.40;;
53409;SDS011;66590;50.734;4.246;2023-07-29T03:58:26;4.18;;;3.42;;
53409;SDS011;66590;50.734;4.246;2023-07-29T04:00:53;4.68;;;3.50;;
53409;SDS011;66590;50.734;4.246;2023-07-29T04:03:20;4.30;;;3.33;;
53409;SDS011;66590;50.734;4.246;2023-07-29T04:05:47;5.43;;;3.42;;
53409;SDS011;66590;50.734;4.246;2023-07-29T04:08:14;6.10;;;3.30;;
53409;SDS011;66590;50.734;4.246;2023-07-29T04:10:41;6.13;;;3.42;;
53409;SDS011;66590;50.734;4.246;2023-07-29T04:13:10;5.35;;;3.63;;
53409;SDS011;66590;50.734;4.246;2023-07-29T04:15:37;6.18;;;3.17;;
53409;SDS011;66590;50.734;4.246;2023-07-29T04:18:04;6.30;;;3.13;;
53409;SDS011;66590;50.734;4.246;2023-07-29T04:20:31;5.10;;;3.40;;
53409;SDS011;66590;50.734;4.246;2023-07-29T04:22:58;5.60;;;3.17;;
53409;SDS011;66590;50.734;4.246;2023-07-29T04:25:25;4.25;;;3.00;;
53409;SDS011;66590;50.734;4.246;2023-07-29T04:27:52;9.45;;;3.20;;
53409;SDS011;66590;50.734;4.246;2023-07-29T04:30:21;4.68;;;3.30;;
53409;SDS011;66590;50.734;4.246;2023-07-29T04:32:48;3.65;;;2.78;;
53409;SDS011;66590;50.734;4.246;2023-07-29T04:35:15;6.90;;;3.28;;
53409;SDS011;66590;50.734;4.246;2023-07-29T04:37:42;4.82;;;2.42;;
53409;SDS011;66590;50.734;4.246;2023-07-29T04:40:09;6.13;;;2.42;;
53409;SDS011;66590;50.734;4.246;2023-07-29T04:42:36;4.35;;;2.72;;
53409;SDS011;66590;50.734;4.246;2023-07-29T04:45:04;5.00;;;2.78;;
53409;SDS011;66590;50.734;4.246;2023-07-29T04:47:32;4.68;;;2.95;;
53409;SDS011;66590;50.734;4.246;2023-07-29T04:49:59;3.90;;;2.70;;
53409;SDS011;66590;50.734;4.246;2023-07-29T04:52:26;4.45;;;2.53;;
53409;SDS011;66590;50.734;4.246;2023-07-29T04:54:53;6.30;;;2.55;;
53409;SDS011;66590;50.734;4.246;2023-07-29T04:57:20;7.53;;;2.55;;
53409;SDS011;66590;50.734;4.246;2023-07-29T04:59:47;2.97;;;2.40;;
53409;SDS011;66590;50.734;4.246;2023-07-29T05:02:14;8.02;;;2.47;;
53409;SDS011;66590;50.734;4.246;2023-07-29T05:04:42;4.95;;;2.40;;
53409;SDS011;66590;50.734;4.246;2023-07-29T05:07:09;5.00;;;2.70;;
53409;SDS011;66590;50.734;4.246;2023-07-29T05:09:37;5.07;;;2.55;;
53409;SDS011;66590;50.734;4.246;2023-07-29T05:12:04;3.60;;;2.63;;
53409;SDS011;66590;50.734;4.246;2023-07-29T05:14:32;4.90;;;3.00;;
53409;SDS011;66590;50.734;4.246;2023-07-29T05:16:59;7.97;;;2.42;;
53409;SDS011;66590;50.734;4.246;2023-07-29T05:19:26;5.53;;;2.47;;
53409;SDS011;66590;50.734;4.246;2023-07-29T05:21:54;5.22;;;3.03;;
53409;SDS011;66590;50.734;4.246;2023-07-29T05:24:21;4.72;;;1.95;;
53409;SDS011;66590;50.734;4.246;2023-07-29T05:26:48;4.85;;;2.45;;
53409;SDS011;66590;50.734;4.246;2023-07-29T05:29:15;3.20;;;2.20;;
53409;SDS011;66590;50.734;4.246;2023-07-29T05:31:42;4.80;;;2.00;;
53409;SDS011;66590;50.734;4.246;2023-07-29T05:34:09;6.20;;;2.40;;
53409;SDS011;66590;50.734;4.246;2023-07-29T05:36:36;3.70;;;2.10;;
53409;SDS011;66590;50.734;4.246;2023-07-29T05:39:05;5.38;;;2.80;;
53409;SDS011;66590;50.734;4.246;2023-07-29T05:41:32;4.97;;;2.33;;
53409;SDS011;66590;50.734;4.246;2023-07-29T05:43:59;2.75;;;2.10;;
53409;SDS011;66590;50.734;4.246;2023-07-29T05:46:26;4.38;;;1.90;;
53409;SDS011;66590;50.734;4.246;2023-07-29T05:48:53;3.40;;;2.00;;
53409;SDS011;66590;50.734;4.246;2023-07-29T05:51:20;3.10;;;1.98;;
53409;SDS011;66590;50.734;4.246;2023-07-29T05:53:47;3.35;;;2.20;;
53409;SDS011;66590;50.734;4.246;2023-07-29T05:56:15;3.50;;;2.03;;
53409;SDS011;66590;50.734;4.246;2023-07-29T05:58:42;3.63;;;2.05;;
53409;SDS011;66590;50.734;4.246;2023-07-29T06:01:10;4.47;;;1.90;;
53409;SDS011;66590;50.734;4.246;2023-07-29T06:03:37;2.47;;;2.00;;
53409;SDS011;66590;50.734;4.246;2023-07-29T06:06:04;2.78;;;2.00;;
53409;SDS011;66590;50.734;4.246;2023-07-29T06:08:31;3.42;;;2.17;;
53409;SDS011;66590;50.734;4.246;2023-07-29T06:10:58;4.85;;;1.92;;
53409;SDS011;66590;50.734;4.246;2023-07-29T06:13:26;2.83;;;1.95;;
53409;SDS011;66590;50.734;4.246;2023-07-29T06:15:53;2.83;;;2.28;;
53409;SDS011;66590;50.734;4.246;2023-07-29T06:18:20;3.78;;;1.95;;
53409;SDS011;66590;50.734;4.246;2023-07-29T06:20:47;2.50;;;2.10;;
53409;SDS011;66590;50.734;4.246;2023-07-29T06:23:14;4.38;;;2.08;;
53409;SDS011;66590;50.734;4.246;2023-07-29T06:25:41;1.95;;;1.75;;
53409;SDS011;66590;50.734;4.246;2023-07-29T06:28:08;5.18;;;2.05;;
53409;SDS011;66590;50.734;4.246;2023-07-29T06:30:37;4.82;;;2.13;;
53409;SDS011;66590;50.734;4.246;2023-07-29T06:33:04;2.85;;;1.90;;
53409;SDS011;66590;50.734;4.246;2023-07-29T06:35:31;4.35;;;2.05;;
53409;SDS011;66590;50.734;4.246;2023-07-29T06:37:58;3.67;;;1.90;;
53409;SDS011;66590;50.734;4.246;2023-07-29T06:40:25;2.65;;;1.90;;
53409;SDS011;66590;50.734;4.246;2023-07-29T06:42:52;3.28;;;1.63;;
53409;SDS011;66590;50.734;4.246;2023-07-29T06:45:19;2.25;;;1.80;;
53409;SDS011;66590;50.734;4.246;2023-07-29T06:47:47;2.60;;;1.50;;
53409;SDS011;66590;50.734;4.246;2023-07-29T06:50:14;2.78;;;1.67;;
53409;SDS011;66590;50.734;4.246;2023-07-29T06:52:41;2.40;;;1.88;;
53409;SDS011;66590;50.734;4.246;2023-07-29T06:55:08;4.90;;;2.03;;
53409;SDS011;66590;50.734;4.246;2023-07-29T06:57:35;2.72;;;2.03;;
53409;SDS011;66590;50.734;4.246;2023-07-29T07:00:09;2.25;;;1.95;;
53409;SDS011;66590;50.734;4.246;2023-07-29T07:02:42;2.53;;;1.60;;
53409;SDS011;66590;50.734;4.246;2023-07-29T07:05:18;4.07;;;1.95;;
53409;SDS011;66590;50.734;4.246;2023-07-29T07:07:51;3.35;;;1.83;;
53409;SDS011;66590;50.734;4.246;2023-07-29T07:10:25;2.27;;;1.47;;
53409;SDS011;66590;50.734;4.246;2023-07-29T07:12:58;3.45;;;2.20;;
53409;SDS011;66590;50.734;4.246;2023-07-29T07:15:32;3.00;;;1.83;;
53409;SDS011;66590;50.734;4.246;2023-07-29T07:17:59;3.88;;;2.05;;
53409;SDS011;66590;50.734;4.246;2023-07-29T07:20:27;3.67;;;2.03;;
53409;SDS011;66590;50.734;4.246;2023-07-29T07:23:01;3.45;;;1.52;;
53409;SDS011;66590;50.734;4.246;2023-07-29T07:25:28;2.25;;;1.70;;
53409;SDS011;66590;50.734;4.246;2023-07-29T07:27:55;3.10;;;1.90;;
53409;SDS011;66590;50.734;4.246;2023-07-29T07:30:28;4.05;;;1.90;;
53409;SDS011;66590;50.734;4.246;2023-07-29T07:33:02;3.45;;;1.65;;
53409;SDS011;66590;50.734;4.246;2023-07-29T07:35:38;2.47;;;1.80;;
53409;SDS011;66590;50.734;4.246;2023-07-29T07:38:11;5.20;;;1.85;;
53409;SDS011;66590;50.734;4.246;2023-07-29T07:40:51;2.05;;;1.65;;
53409;SDS011;66590;50.734;4.246;2023-07-29T07:43:25;2.22;;;1.70;;
53409;SDS011;66590;50.734;4.246;2023-07-29T07:45:59;5.07;;;1.90;;
53409;SDS011;66590;50.734;4.246;2023-07-29T07:48:28;2.97;;;1.70;;
53409;SDS011;66590;50.734;4.246;2023-07-29T07:50:56;3.13;;;1.88;;
53409;SDS011;66590;50.734;4.246;2023-07-29T07:53:23;4.07;;;1.98;;
53409;SDS011;66590;50.734;4.246;2023-07-29T07:55:50;2.60;;;1.75;;
53409;SDS011;66590;50.734;4.246;2023-07-29T07:58:17;2.78;;;1.67;;
53409;SDS011;66590;50.734;4.246;2023-07-29T08:00:46;5.15;;;1.65;;
53409;SDS011;66590;50.734;4.246;2023-07-29T08:03:13;2.75;;;1.50;;
53409;SDS011;66590;50.734;4.246;2023-07-29T08:05:40;1.95;;;1.50;;
53409;SDS011;66590;50.734;4.246;2023-07-29T08:08:08;2.83;;;1.83;;
53409;SDS011;66590;50.734;4.246;2023-07-29T08:10:35;2.72;;;1.80;;
53409;SDS011;66590;50.734;4.246;2023-07-29T08:13:02;2.35;;;1.80;;
53409;SDS011;66590;50.734;4.246;2023-07-29T08:15:29;2.25;;;1.52;;
53409;SDS011;66590;50.734;4.246;2023-07-29T08:17:56;2.72;;;1.77;;
53409;SDS011;66590;50.734;4.246;2023-07-29T08:20:23;3.22;;;1.77;;
53409;SDS011;66590;50.734;4.246;2023-07-29T08:22:50;2.85;;;1.55;;
53409;SDS011;66590;50.734;4.246;2023-07-29T08:25:18;2.65;;;1.60;;
53409;SDS011;66590;50.734;4.246;2023-07-29T08:27:45;3.30;;;1.70;;
53409;SDS011;66590;50.734;4.246;2023-07-29T08:30:12;2.28;;;1.85;;
53409;SDS011;66590;50.734;4.246;2023-07-29T08:32:39;2.55;;;1.58;;
53409;SDS011;66590;50.734;4.246;2023-07-29T08:35:06;3.58;;;1.83;;
53409;SDS011;66590;50.734;4.246;2023-07-29T08:37:34;4.18;;;1.90;;
53409;SDS011;66590;50.734;4.246;2023-07-29T08:40:00;2.35;;;2.03;;
53409;SDS011;66590;50.734;4.246;2023-07-29T08:42:30;3.20;;;2.15;;
53409;SDS011;66590;50.734;4.246;2023-07-29T08:44:59;2.22;;;1.58;;
53409;SDS011;66590;50.734;4.246;2023-07-29T08:47:32;1.93;;;1.70;;
53409;SDS011;66590;50.734;4.246;2023-07-29T08:49:59;2.88;;;1.70;;
53409;SDS011;66590;50.734;4.246;2023-07-29T08:52:29;2.33;;;1.70;;
53409;SDS011;66590;50.734;4.246;2023-07-29T08:54:56;3.15;;;1.73;;
53409;SDS011;66590;50.734;4.246;2023-07-29T08:57:23;2.20;;;1.77;;
53409;SDS011;66590;50.734;4.246;2023-07-29T08:59:52;4.38;;;2.22;;
53409;SDS011;66590;50.734;4.246;2023-07-29T09:02:19;2.88;;;1.73;;
53409;SDS011;66590;50.734;4.246;2023-07-29T09:04:46;2.78;;;1.80;;
53409;SDS011;66590;50.734;4.246;2023-07-29T09:07:13;3.28;;;2.08;;
53409;SDS011;66590;50.734;4.246;2023-07-29T09:09:40;2.15;;;1.77;;
53409;SDS011;66590;50.734;4.246;2023-07-29T09:12:07;1.80;;;1.70;;
53409;SDS011;66590;50.734;4.246;2023-07-29T09:14:34;2.35;;;1.80;;
53409;SDS011;66590;50.734;4.246;2023-07-29T09:17:06;3.55;;;1.70;;
53409;SDS011;66590;50.734;4.246;2023-07-29T09:19:33;3.03;;;2.03;;
53409;SDS011;66590;50.734;4.246;2023-07-29T09:22:00;2.13;;;1.73;;
53409;SDS011;66590;50.734;4.246;2023-07-29T09:24:27;3.10;;;1.80;;
53409;SDS011;66590;50.734;4.246;2023-07-29T09:26:55;3.50;;;1.83;;
53409;SDS011;66590;50.734;4.246;2023-07-29T09:29:22;3.80;;;1.80;;
53409;SDS011;66590;50.734;4.246;2023-07-29T09:31:49;3.00;;;2.10;;
53409;SDS011;66590;50.734;4.246;2023-07-29T09:34:18;1.98;;;1.88;;
53409;SDS011;66590;50.734;4.246;2023-07-29T09:36:45;3.33;;;1.80;;
53409;SDS011;66590;50.734;4.246;2023-07-29T09:39:12;2.35;;;2.15;;
53409;SDS011;66590;50.734;4.246;2023-07-29T09:41:39;2.10;;;1.60;;
53409;SDS011;66590;50.734;4.246;2023-07-29T09:44:07;3.03;;;1.90;;
53409;SDS011;66590;50.734;4.246;2023-07-29T09:46:34;3.53;;;2.08;;
53409;SDS011;66590;50.734;4.246;2023-07-29T09:49:04;4.03;;;2.88;;
53409;SDS011;66590;50.734;4.246;2023-07-29T09:51:33;3.22;;;1.98;;
53409;SDS011;66590;50.734;4.246;2023-07-29T09:54:04;2.70;;;2.28;;
53409;SDS011;66590;50.734;4.246;2023-07-29T09:56:31;3.55;;;2.58;;
53409;SDS011;66590;50.734;4.246;2023-07-29T09:58:58;3.97;;;2.92;;
53409;SDS011;66590;50.734;4.246;2023-07-29T10:01:27;3.00;;;2.70;;
53409;SDS011;66590;50.734;4.246;2023-07-29T10:03:54;6.50;;;3.20;;
53409;SDS011;66590;50.734;4.246;2023-07-29T10:06:22;4.28;;;2.35;;
53409;SDS011;66590;50.734;4.246;2023-07-29T10:08:51;2.33;;;2.00;;
53409;SDS011;66590;50.734;4.246;2023-07-29T10:11:18;4.00;;;2.67;;
53409;SDS011;66590;50.734;4.246;2023-07-29T10:13:48;4.45;;;2.63;;
53409;SDS011;66590;50.734;4.246;2023-07-29T10:16:32;3.57;;;2.87;;
53409;SDS011;66590;50.734;4.246;2023-07-29T10:19:01;3.25;;;2.53;;
53409;SDS011;66590;50.734;4.246;2023-07-29T10:21:28;5.47;;;3.10;;
53409;SDS011;66590;50.734;4.246;2023-07-29T10:23:57;3.10;;;2.50;;
53409;SDS011;66590;50.734;4.246;2023-07-29T10:26:28;4.53;;;3.00;;
53409;SDS011;66590;50.734;4.246;2023-07-29T10:29:00;5.18;;;2.80;;
53409;SDS011;66590;50.734;4.246;2023-07-29T10:31:33;3.33;;;2.70;;
53409;SDS011;66590;50.734;4.246;2023-07-29T10:34:01;3.78;;;2.97;;
53409;SDS011;66590;50.734;4.246;2023-07-29T10:36:29;4.70;;;2.78;;
53409;SDS011;66590;50.734;4.246;2023-07-29T10:38:58;3.25;;;2.90;;
53409;SDS011;66590;50.734;4.246;2023-07-29T10:41:32;4.28;;;2.70;;
53409;SDS011;66590;50.734;4.246;2023-07-29T10:47:13;5.35;;;3.70;;
53409;SDS011;66590;50.734;4.246;2023-07-29T10:49:41;4.68;;;4.15;;
53409;SDS011;66590;50.734;4.246;2023-07-29T10:52:09;5.88;;;5.10;;
53409;SDS011;66590;50.734;4.246;2023-07-29T10:54:43;5.70;;;5.00;;
53409;SDS011;66590;50.734;4.246;2023-07-29T10:57:16;7.63;;;5.20;;
53409;SDS011;66590;50.734;4.246;2023-07-29T10:59:57;4.20;;;3.88;;
53409;SDS011;66590;50.734;4.246;2023-07-29T11:02:28;5.93;;;4.53;;
53409;SDS011;66590;50.734;4.246;2023-07-29T11:04:56;5.22;;;4.43;;
53409;SDS011;66590;50.734;4.246;2023-07-29T11:07:23;4.30;;;3.90;;
53409;SDS011;66590;50.734;4.246;2023-07-29T11:09:53;5.57;;;4.13;;
53409;SDS011;66590;50.734;4.246;2023-07-29T11:15:19;3.80;;;3.47;;
53409;SDS011;66590;50.734;4.246;2023-07-29T11:17:49;4.78;;;4.25;;
53409;SDS011;66590;50.734;4.246;2023-07-29T11:20:17;4.00;;;3.58;;
53409;SDS011;66590;50.734;4.246;2023-07-29T11:22:45;3.88;;;3.58;;
53409;SDS011;66590;50.734;4.246;2023-07-29T11:25:12;3.97;;;3.65;;
53409;SDS011;66590;50.734;4.246;2023-07-29T11:27:40;6.22;;;3.90;;
53409;SDS011;66590;50.734;4.246;2023-07-29T11:30:09;4.30;;;3.72;;
53409;SDS011;66590;50.734;4.246;2023-07-29T11:32:39;4.38;;;3.80;;
53409;SDS011;66590;50.734;4.246;2023-07-29T11:35:07;3.72;;;3.42;;
53409;SDS011;66590;50.734;4.246;2023-07-29T11:37:36;3.83;;;3.42;;
53409;SDS011;66590;50.734;4.246;2023-07-29T11:40:04;4.57;;;3.60;;
53409;SDS011;66590;50.734;4.246;2023-07-29T11:42:32;4.45;;;3.55;;
53409;SDS011;66590;50.734;4.246;2023-07-29T11:45:00;3.40;;;3.10;;
53409;SDS011;66590;50.734;4.246;2023-07-29T11:47:28;3.47;;;3.10;;
53409;SDS011;66590;50.734;4.246;2023-07-29T11:49:58;2.78;;;2.58;;
53409;SDS011;66590;50.734;4.246;2023-07-29T11:52:25;2.67;;;2.47;;
53409;SDS011;66590;50.734;4.246;2023-07-29T11:54:54;3.25;;;2.78;;
53409;SDS011;66590;50.734;4.246;2023-07-29T11:57:21;4.50;;;3.47;;
53409;SDS011;66590;50.734;4.246;2023-07-29T11:59:49;3.85;;;3.45;;
53409;SDS011;66590;50.734;4.246;2023-07-29T12:02:16;3.45;;;3.15;;
53409;SDS011;66590;50.734;4.246;2023-07-29T12:04:47;3.90;;;3.45;;
53409;SDS011;66590;50.734;4.246;2023-07-29T12:07:16;4.10;;;3.47;;
53409;SDS011;66590;50.734;4.246;2023-07-29T12:09:44;3.75;;;3.35;;
53409;SDS011;66590;50.734;4.246;2023-07-29T12:12:13;5.05;;;3.63;;
53409;SDS011;66590;50.734;4.246;2023-07-29T12:14:43;3.28;;;3.05;;
53409;SDS011;66590;50.734;4.246;2023-07-29T12:17:11;4.80;;;3.38;;
53409;SDS011;66590;50.734;4.246;2023-07-29T12:19:38;5.05;;;3.65;;
53409;SDS011;66590;50.734;4.246;2023-07-29T12:22:08;6.75;;;3.95;;
53409;SDS011;66590;50.734;4.246;2023-07-29T12:24:36;4.97;;;4.47;;
53409;SDS011;66590;50.734;4.246;2023-07-29T12:27:04;7.00;;;5.75;;
53409;SDS011;66590;50.734;4.246;2023-07-29T12:29:32;5.93;;;4.82;;
53409;SDS011;66590;50.734;4.246;2023-07-29T12:32:05;6.95;;;5.15;;
53409;SDS011;66590;50.734;4.246;2023-07-29T12:34:33;6.88;;;5.28;;
53409;SDS011;66590;50.734;4.246;2023-07-29T12:37:02;5.65;;;4.53;;
53409;SDS011;66590;50.734;4.246;2023-07-29T12:39:32;5.40;;;4.90;;
53409;SDS011;66590;50.734;4.246;2023-07-29T12:42:00;4.93;;;4.53;;
53409;SDS011;66590;50.734;4.246;2023-07-29T12:44:29;5.97;;;4.82;;
53409;SDS011;66590;50.734;4.246;2023-07-29T12:46:58;6.10;;;5.50;;
53409;SDS011;66590;50.734;4.246;2023-07-29T12:49:26;5.28;;;4.75;;
53409;SDS011;66590;50.734;4.246;2023-07-29T12:51:52;6.10;;;4.70;;
53409;SDS011;66590;50.734;4.246;2023-07-29T12:54:19;4.85;;;4.45;;
53409;SDS011;66590;50.734;4.246;2023-07-29T12:56:48;4.80;;;4.40;;
53409;SDS011;66590;50.734;4.246;2023-07-29T12:59:15;4.85;;;4.10;;
53409;SDS011;66590;50.734;4.246;2023-07-29T13:01:42;4.40;;;4.00;;
53409;SDS011;66590;50.734;4.246;2023-07-29T13:04:09;5.07;;;4.30;;
53409;SDS011;66590;50.734;4.246;2023-07-29T13:06:36;3.80;;;3.50;;
53409;SDS011;66590;50.734;4.246;2023-07-29T13:09:04;2.40;;;2.30;;
53409;SDS011;66590;50.734;4.246;2023-07-29T13:11:31;2.33;;;2.10;;
53409;SDS011;66590;50.734;4.246;2023-07-29T13:13:59;2.00;;;1.80;;
53409;SDS011;66590;50.734;4.246;2023-07-29T13:16:27;2.17;;;2.03;;
53409;SDS011;66590;50.734;4.246;2023-07-29T13:18:54;2.35;;;2.15;;
53409;SDS011;66590;50.734;4.246;2023-07-29T13:21:21;2.72;;;2.30;;
53409;SDS011;66590;50.734;4.246;2023-07-29T13:23:48;2.17;;;2.08;;
53409;SDS011;66590;50.734;4.246;2023-07-29T13:26:15;2.05;;;1.95;;
53409;SDS011;66590;50.734;4.246;2023-07-29T13:28:42;2.20;;;2.00;;
53409;SDS011;66590;50.734;4.246;2023-07-29T13:31:10;2.35;;;2.20;;
53409;SDS011;66590;50.734;4.246;2023-07-29T13:33:37;2.15;;;1.90;;
53409;SDS011;66590;50.734;4.246;2023-07-29T13:36:05;2.42;;;2.13;;
53409;SDS011;66590;50.734;4.246;2023-07-29T13:38:32;3.17;;;2.10;;
53409;SDS011;66590;50.734;4.246;2023-07-29T13:40:58;3.13;;;2.17;;
53409;SDS011;66590;50.734;4.246;2023-07-29T13:43:25;2.00;;;1.90;;
53409;SDS011;66590;50.734;4.246;2023-07-29T13:45:52;3.50;;;2.42;;
53409;SDS011;66590;50.734;4.246;2023-07-29T13:48:21;2.65;;;2.30;;
53409;SDS011;66590;50.734;4.246;2023-07-29T13:50:48;3.67;;;2.38;;
53409;SDS011;66590;50.734;4.246;2023-07-29T13:53:15;2.28;;;2.08;;
53409;SDS011;66590;50.734;4.246;2023-07-29T13:55:42;2.65;;;1.98;;
53409;SDS011;66590;50.734;4.246;2023-07-29T13:58:09;2.25;;;2.05;;
53409;SDS011;66590;50.734;4.246;2023-07-29T14:00:36;2.65;;;1.80;;
53409;SDS011;66590;50.734;4.246;2023-07-29T14:03:03;2.70;;;1.75;;
53409;SDS011;66590;50.734;4.246;2023-07-29T14:05:32;2.38;;;1.80;;
53409;SDS011;66590;50.734;4.246;2023-07-29T14:07:59;1.85;;;1.70;;
53409;SDS011;66590;50.734;4.246;2023-07-29T14:10:26;1.77;;;1.52;;
53409;SDS011;66590;50.734;4.246;2023-07-29T14:12:53;1.67;;;1.45;;
53409;SDS011;66590;50.734;4.246;2023-07-29T14:15:20;1.50;;;1.40;;
53409;SDS011;66590;50.734;4.246;2023-07-29T14:17:47;2.30;;;1.45;;
53409;SDS011;66590;50.734;4.246;2023-07-29T14:20:15;1.70;;;1.60;;
53409;SDS011;66590;50.734;4.246;2023-07-29T14:22:43;1.80;;;1.70;;
53409;SDS011;66590;50.734;4.246;2023-07-29T14:25:10;1.80;;;1.70;;
53409;SDS011;66590;50.734;4.246;2023-07-29T14:27:37;1.80;;;1.45;;
53409;SDS011;66590;50.734;4.246;2023-07-29T14:30:05;2.03;;;1.83;;
53409;SDS011;66590;50.734;4.246;2023-07-29T14:32:32;2.25;;;2.05;;
53409;SDS011;66590;50.734;4.246;2023-07-29T14:34:59;1.88;;;1.73;;
53409;SDS011;66590;50.734;4.246;2023-07-29T14:37:26;2.17;;;1.83;;
53409;SDS011;66590;50.734;4.246;2023-07-29T14:39:54;1.70;;;1.60;;
53409;SDS011;66590;50.734;4.246;2023-07-29T14:42:21;1.85;;;1.60;;
53409;SDS011;66590;50.734;4.246;2023-07-29T14:44:49;2.00;;;1.80;;
53409;SDS011;66590;50.734;4.246;2023-07-29T14:47:16;1.70;;;1.60;;
53409;SDS011;66590;50.734;4.246;2023-07-29T14:49:43;2.28;;;1.50;;
53409;SDS011;66590;50.734;4.246;2023-07-29T14:52:10;1.70;;;1.60;;
53409;SDS011;66590;50.734;4.246;2023-07-29T14:54:37;1.80;;;1.70;;
53409;SDS011;66590;50.734;4.246;2023-07-29T14:57:06;2.05;;;1.73;;
53409;SDS011;66590;50.734;4.246;2023-07-29T14:59:33;1.80;;;1.70;;